Time;durP1;ratioP1;P1;durP2;ratioP2;P2;SDS_P1;SDS_P2;PMS_P1;PMS_P2;Temp;Humidity;BMP_temperature;BMP_pressure;BME280_temperature;BME280_humidity;BME280_pressure;Samples;Min_cycle;Max_cycle;Signal;HPM_P1;HPM_P2
2023/03/01 00:01:58;;;;;;;26.33;20.02;;;0.60;99.90;;;;;;6215309;23;20016;-88
2023/03/01 00:04:24;;;;;;;28.08;20.00;;;0.60;99.90;;;;;;6215906;23;20008;-86
2023/03/01 00:06:50;;;;;;;28.05;19.65;;;0.60;99.90;;;;;;6242650;23;20007;-87
2023/03/01 00:09:16;;;;;;;24.23;19.15;;;0.50;99.90;;;;;;6241702;23;20007;-87
2023/03/01 00:11:42;;;;;;;23.35;17.73;;;0.50;99.90;;;;;;6242215;23;20007;-86
2023/03/01 00:14:08;;;;;;;28.05;19.40;;;0.50;99.90;;;;;;6242133;23;20001;-88
2023/03/01 00:16:39;;;;;;;25.45;19.77;;;0.50;99.90;;;;;;6243218;23;20508;-87
2023/03/01 00:19:11;;;;;;;27.65;20.08;;;0.40;99.90;;;;;;6243280;23;20011;-87
2023/03/01 00:21:37;;;;;;;28.73;19.00;;;0.30;99.90;;;;;;6215407;23;20016;-86
2023/03/01 00:24:03;;;;;;;26.85;19.10;;;0.40;99.90;;;;;;6242822;23;20010;-88
2023/03/01 00:26:28;;;;;;;25.73;19.08;;;0.30;99.90;;;;;;6241713;23;20459;-88
2023/03/01 00:28:57;;;;;;;24.83;18.23;;;0.30;99.90;;;;;;6215487;23;20467;-86
2023/03/01 00:31:23;;;;;;;;;;;0.30;99.90;;;;;;6243141;23;20092;-87
2023/03/01 00:33:56;;;;;;;28.23;18.40;;;0.90;99.90;;;;;;6242254;23;19899;-86
2023/03/01 00:36:22;;;;;;;25.40;18.70;;;0.30;99.90;;;;;;6215292;23;20008;-87
2023/03/01 00:38:48;;;;;;;26.63;18.63;;;0.30;99.90;;;;;;6214318;23;20000;-86
2023/03/01 00:41:16;;;;;;;24.50;18.25;;;0.30;99.90;;;;;;6242026;23;20004;-85
2023/03/01 00:43:42;;;;;;;23.20;17.10;;;0.10;99.90;;;;;;6241947;23;20062;-86
2023/03/01 00:46:15;;;;;;;24.60;18.58;;;0.20;99.90;;;;;;6243292;23;20000;-86
2023/03/01 00:48:42;;;;;;;27.08;18.08;;;0.20;99.90;;;;;;6241959;23;20004;-85
2023/03/01 00:51:14;;;;;;;29.15;20.02;;;0.20;99.90;;;;;;6216345;23;20091;-86
2023/03/01 00:53:40;;;;;;;27.50;18.08;;;0.10;99.90;;;;;;6214867;23;20004;-86
2023/03/01 00:56:07;;;;;;;28.27;19.90;;;0.10;99.90;;;;;;6242492;23;20004;-86
2023/03/01 00:58:34;;;;;;;22.40;17.00;;;0.10;99.90;;;;;;6215135;23;20444;-86
2023/03/01 01:00:59;;;;;;;27.38;19.48;;;0.10;99.90;;;;;;6214967;23;20027;-87
2023/03/01 01:03:25;;;;;;;29.08;20.30;;;0.00;99.90;;;;;;6215203;23;20364;-86
2023/03/01 01:05:52;;;;;;;27.65;20.25;;;0.00;99.90;;;;;;6241719;23;20037;-87
2023/03/01 01:08:19;;;;;;;28.27;20.15;;;0.10;99.90;;;;;;6241915;23;20035;-88
2023/03/01 01:10:46;;;;;;;26.38;19.80;;;0.00;99.90;;;;;;6241195;23;20075;-86
2023/03/01 01:13:12;;;;;;;26.83;19.50;;;0.00;99.90;;;;;;6242068;23;20035;-88
2023/03/01 01:15:39;;;;;;;25.08;19.30;;;0.00;99.90;;;;;;6216101;23;20000;-87
2023/03/01 01:18:05;;;;;;;25.08;19.15;;;0.10;99.90;;;;;;6242713;23;20012;-88
2023/03/01 01:20:31;;;;;;;25.73;19.08;;;0.00;99.90;;;;;;6241697;23;20004;-88
2023/03/01 01:22:56;;;;;;;27.15;19.05;;;0.00;99.90;;;;;;6240963;23;20039;-85
2023/03/01 01:25:24;;;;;;;27.08;19.30;;;0.10;99.90;;;;;;6241509;23;20385;-87
2023/03/01 01:27:50;;;;;;;25.02;18.75;;;-0.10;99.90;;;;;;6241608;23;20000;-87
2023/03/01 01:30:16;;;;;;;25.60;18.77;;;-0.10;99.90;;;;;;6241940;23;19997;-87
2023/03/01 01:32:42;;;;;;;25.65;18.85;;;-0.20;99.90;;;;;;6241728;23;20054;-86
2023/03/01 01:35:08;;;;;;;26.00;19.33;;;-0.20;99.90;;;;;;6242299;23;20004;-86
2023/03/01 01:37:33;;;;;;;27.33;18.85;;;-0.30;99.90;;;;;;6214518;23;20433;-86
2023/03/01 01:40:00;;;;;;;24.65;19.15;;;-0.30;99.90;;;;;;6240898;23;20062;-87
2023/03/01 01:42:27;;;;;;;24.83;18.42;;;-0.20;99.90;;;;;;6241133;23;20046;-87
2023/03/01 01:45:30;;;;;;;24.98;18.92;;;-0.20;99.90;;;;;;6241445;23;19996;-86
2023/03/01 01:48:00;;;;;;;25.05;18.55;;;-0.20;99.90;;;;;;6241261;23;20038;-86
2023/03/01 01:50:26;;;;;;;24.10;18.00;;;-0.30;99.90;;;;;;6240961;23;20425;-85
2023/03/01 01:52:54;;;;;;;25.88;18.65;;;-0.20;99.90;;;;;;6214574;23;20105;-86
2023/03/01 01:55:25;;;;;;;26.70;18.03;;;-0.20;99.90;;;;;;6240960;23;20485;-85
2023/03/01 01:57:55;;;;;;;24.88;18.77;;;-0.20;99.90;;;;;;6214406;23;20070;-85
2023/03/01 02:00:29;;;;;;;25.60;18.15;;;-0.30;99.90;;;;;;6241500;23;20433;-87
2023/03/01 02:02:59;;;;;;;24.70;18.35;;;-0.30;99.90;;;;;;6241197;23;20015;-85
2023/03/01 02:05:28;;;;;;;24.45;18.00;;;-0.30;99.90;;;;;;6241621;23;20063;-87
2023/03/01 02:07:54;;;;;;;;;;;-0.30;99.90;;;;;;6241952;23;20012;-85
2023/03/01 02:10:23;;;;;;;26.92;17.52;;;-0.30;99.90;;;;;;6214039;23;19899;-86
2023/03/01 02:12:49;;;;;;;23.38;17.73;;;-0.30;99.90;;;;;;6214585;23;20028;-86
2023/03/01 02:15:15;;;;;;;26.83;17.63;;;-0.30;99.90;;;;;;6241036;23;20000;-87
2023/03/01 02:17:41;;;;;;;25.00;18.40;;;-0.20;99.90;;;;;;6242199;23;20000;-87
2023/03/01 02:20:25;;;;;;;22.08;17.67;;;-0.30;99.90;;;;;;6240975;23;20074;-84
2023/03/01 02:22:51;;;;;;;25.40;16.65;;;-0.30;99.90;;;;;;6241038;23;20008;-87
2023/03/01 02:25:20;;;;;;;25.17;17.23;;;-0.30;99.90;;;;;;6241159;23;20424;-88
2023/03/01 02:28:20;;;;;;;23.33;16.92;;;-0.30;99.90;;;;;;6241177;23;20004;-88
2023/03/01 02:33:35;;;;;;;22.50;16.67;;;-0.30;99.90;;;;;;6241182;23;20298;-88
2023/03/01 02:36:04;;;;;;;26.85;16.33;;;-0.30;99.90;;;;;;6240436;23;19996;-86
2023/03/01 02:38:31;;;;;;;24.23;17.10;;;-0.30;99.90;;;;;;6241111;23;20007;-86
2023/03/01 02:40:58;;;;;;;25.63;16.65;;;0.20;99.90;;;;;;6241228;23;20012;-87
2023/03/01 02:43:28;;;;;;;24.02;17.48;;;-0.40;99.90;;;;;;6241254;23;20083;-88
2023/03/01 02:45:58;;;;;;;23.13;16.13;;;-0.30;99.90;;;;;;6214351;23;20445;-85
2023/03/01 02:48:24;;;;;;;20.55;15.88;;;-0.40;99.90;;;;;;6241019;23;20004;-89
2023/03/01 02:51:01;;;;;;;21.80;16.38;;;-0.40;99.90;;;;;;6213507;23;20057;-88
2023/03/01 02:53:41;;;;;;;22.30;15.20;;;-0.50;99.90;;;;;;6214075;23;20012;-87
2023/03/01 02:56:12;;;;;;;24.10;16.65;;;-0.40;99.90;;;;;;6241449;23;20031;-89
2023/03/01 02:58:45;;;;;;;23.73;16.13;;;-0.50;99.90;;;;;;6241001;23;20011;-87
2023/03/01 03:01:14;;;;;;;22.10;15.98;;;-0.50;99.90;;;;;;6241914;23;20432;-89
2023/03/01 03:03:41;;;;;;;22.30;15.68;;;-0.50;99.90;;;;;;6217263;23;20444;-87
2023/03/01 03:06:07;;;;;;;19.77;15.77;;;-0.50;99.90;;;;;;6215809;23;20000;-88
2023/03/01 03:08:32;;;;;;;20.60;15.73;;;-0.50;99.90;;;;;;6216099;23;20011;-88
2023/03/01 03:10:58;;;;;;;21.05;15.93;;;-0.50;99.90;;;;;;6242989;23;20062;-89
2023/03/01 03:13:28;;;;;;;21.48;16.48;;;-0.50;99.90;;;;;;6242733;23;20429;-86
2023/03/01 03:15:55;;;;;;;19.30;14.73;;;-0.60;99.90;;;;;;6242839;23;20011;-89
2023/03/01 03:18:21;;;;;;;25.52;15.77;;;-0.60;99.90;;;;;;6216065;23;20054;-88
2023/03/01 03:20:52;;;;;;;23.48;17.08;;;-0.50;99.90;;;;;;6241873;23;20004;-87
2023/03/01 03:23:18;;;;;;;18.67;15.05;;;-0.60;99.90;;;;;;6242922;23;20000;-89
2023/03/01 03:25:44;;;;;;;21.05;15.55;;;-0.60;99.90;;;;;;6217170;23;20008;-88
2023/03/01 03:28:09;;;;;;;21.02;15.35;;;-0.70;99.90;;;;;;6242607;23;20464;-88
2023/03/01 03:30:38;;;;;;;21.08;15.55;;;-0.70;99.90;;;;;;6242361;23;20004;-89
2023/03/01 03:33:05;;;;;;;20.65;15.35;;;-0.70;99.90;;;;;;6242872;23;20030;-88
2023/03/01 03:35:33;;;;;;;21.85;15.00;;;-0.70;99.90;;;;;;6242462;23;20007;-89
2023/03/01 03:38:01;;;;;;;18.95;15.63;;;-0.70;99.90;;;;;;6242783;23;20015;-87
2023/03/01 03:40:32;;;;;;;22.15;15.32;;;-0.70;99.90;;;;;;6242707;23;19996;-87
2023/03/01 03:42:57;;;;;;;21.98;15.15;;;-0.80;99.90;;;;;;6241894;23;20391;-88
2023/03/01 03:45:23;;;;;;;21.55;15.77;;;-0.90;99.90;;;;;;6215858;23;20000;-87
2023/03/01 03:47:49;;;;;;;21.70;15.27;;;-0.80;99.90;;;;;;6215810;23;20012;-88
2023/03/01 03:50:16;;;;;;;21.33;15.18;;;-0.70;99.90;;;;;;6243679;23;20001;-90
2023/03/01 03:52:42;;;;;;;19.42;15.00;;;-0.70;99.90;;;;;;6242296;23;20004;-89
2023/03/01 03:55:10;;;;;;;21.50;16.00;;;-0.70;99.90;;;;;;6242119;23;20203;-86
2023/03/01 03:57:51;;;;;;;23.33;16.20;;;-0.80;99.90;;;;;;6242220;23;20077;-89
2023/03/01 04:00:18;;;;;;;23.58;15.70;;;-0.80;99.90;;;;;;6216009;23;20004;-87
2023/03/01 04:02:45;;;;;;;23.27;15.82;;;-0.80;99.90;;;;;;6243068;23;20016;-86
2023/03/01 04:05:12;;;;;;;19.90;15.40;;;-0.70;99.90;;;;;;6242128;23;19996;-89
2023/03/01 04:07:38;;;;;;;20.33;14.52;;;-0.70;99.90;;;;;;6241525;23;20508;-88
2023/03/01 04:10:06;;;;;;;20.92;15.18;;;-0.70;99.90;;;;;;6242105;23;20012;-89
2023/03/01 04:12:36;;;;;;;22.77;15.65;;;-0.80;99.90;;;;;;6243880;23;20084;-90
2023/03/01 04:15:12;;;;;;;19.48;15.02;;;-0.80;99.90;;;;;;6242956;23;20067;-92
2023/03/01 04:17:41;;;;;;;21.55;15.75;;;-0.80;99.90;;;;;;6216490;23;20095;-91
2023/03/01 04:20:10;;;;;;;21.73;15.57;;;-0.80;99.90;;;;;;6216804;23;20012;-91
2023/03/01 04:22:37;;;;;;;19.02;15.10;;;-0.80;99.90;;;;;;6215676;23;20020;-91
2023/03/01 04:25:04;;;;;;;21.77;15.77;;;-0.80;99.90;;;;;;6242843;23;20072;-92
2023/03/01 04:27:30;;;;;;;22.10;15.77;;;-0.80;99.90;;;;;;6243181;23;20000;-91
2023/03/01 04:29:56;;;;;;;21.27;15.82;;;-0.80;99.90;;;;;;6216771;23;20057;-90
2023/03/01 04:32:21;;;;;;;22.73;16.13;;;0.70;99.90;;;;;;6243601;23;20000;-90
2023/03/01 04:34:47;;;;;;;21.58;15.60;;;-0.90;99.90;;;;;;6217392;23;20004;-90
2023/03/01 04:37:12;;;;;;;23.85;15.95;;;-0.90;99.90;;;;;;6243280;23;20008;-91
2023/03/01 04:39:45;;;;;;;22.20;15.63;;;0.80;99.90;;;;;;6242606;23;20055;-89
2023/03/01 04:42:11;;;;;;;19.95;15.15;;;-1.10;99.90;;;;;;6243187;23;20190;-91
2023/03/01 04:44:37;;;;;;;24.73;15.77;;;-1.10;99.90;;;;;;6242292;23;20027;-91
2023/03/01 04:47:03;;;;;;;20.77;15.15;;;-1.00;99.90;;;;;;6215748;23;20004;-90
2023/03/01 04:49:29;;;;;;;21.00;16.02;;;-0.90;99.90;;;;;;6243581;23;20000;-92
2023/03/01 04:51:55;;;;;;;20.05;15.80;;;-1.10;99.90;;;;;;6217258;23;20018;-90
2023/03/01 04:54:21;;;;;;;20.15;14.95;;;-1.20;99.90;;;;;;6244269;23;19996;-90
2023/03/01 04:56:46;;;;;;;20.75;15.50;;;-0.20;99.90;;;;;;6216269;23;20337;-92
2023/03/01 04:59:12;;;;;;;20.52;15.15;;;-1.20;99.90;;;;;;6243044;23;20000;-92
2023/03/01 05:01:38;;;;;;;20.63;15.20;;;0.30;99.90;;;;;;6242624;23;20015;-89
2023/03/01 05:04:05;;;;;;;24.98;15.27;;;-0.30;99.90;;;;;;6216464;23;20008;-93
2023/03/01 05:06:32;;;;;;;19.13;14.32;;;-1.10;99.90;;;;;;6242628;23;20000;-88
2023/03/01 05:08:58;;;;;;;21.55;14.77;;;0.10;99.90;;;;;;6242033;23;20007;-92
2023/03/01 05:11:24;;;;;;;22.13;15.23;;;;;;;;;;6241636;23;20036;-91
2023/03/01 05:13:54;;;;;;;19.25;14.88;;;-1.20;99.90;;;;;;6243549;23;20449;-92
2023/03/01 05:16:20;;;;;;;22.35;15.20;;;-1.20;99.90;;;;;;6244637;23;20001;-93
2023/03/01 05:18:45;;;;;;;19.67;14.60;;;-0.90;99.90;;;;;;6246417;23;20451;-93
2023/03/01 05:21:17;;;;;;;20.83;15.18;;;-1.20;99.90;;;;;;6242269;23;20011;-90
2023/03/01 05:23:43;;;;;;;20.50;14.77;;;-1.20;99.90;;;;;;6241949;23;20256;-90
2023/03/01 05:26:08;;;;;;;23.88;15.68;;;-1.10;99.90;;;;;;6241928;23;20000;-91
2023/03/01 05:28:34;;;;;;;20.35;15.48;;;-1.10;99.90;;;;;;6215091;23;20326;-91
2023/03/01 05:31:00;;;;;;;19.50;14.30;;;-1.20;99.90;;;;;;6215232;23;20000;-90
2023/03/01 05:33:26;;;;;;;20.08;15.02;;;-1.10;99.90;;;;;;6215250;23;20004;-90
2023/03/01 05:35:53;;;;;;;19.33;14.32;;;-1.10;99.90;;;;;;6243289;23;20002;-90
2023/03/01 05:38:20;;;;;;;19.65;14.48;;;-1.20;99.90;;;;;;6215758;23;20015;-92
2023/03/01 05:40:47;;;;;;;22.10;15.38;;;0.30;99.90;;;;;;6243071;23;20023;-89
2023/03/01 05:43:15;;;;;;;19.27;14.63;;;-1.20;99.90;;;;;;6218915;23;20008;-89
2023/03/01 05:45:41;;;;;;;20.98;14.80;;;-1.50;99.90;;;;;;6249622;23;20060;-89
2023/03/01 05:48:08;;;;;;;20.60;15.18;;;-1.30;99.90;;;;;;6244512;23;20004;-90
2023/03/01 05:50:40;;;;;;;22.45;15.23;;;-1.40;99.90;;;;;;6214657;23;20038;-89
2023/03/01 05:53:09;;;;;;;21.90;14.27;;;-1.40;99.90;;;;;;6240968;23;20436;-87
2023/03/01 05:55:35;;;;;;;;;;;-1.50;99.90;;;;;;6214725;23;20008;-87
2023/03/01 05:58:11;;;;;;;20.48;15.07;;;-1.50;99.90;;;;;;6241286;23;20333;-89
2023/03/01 06:00:37;;;;;;;23.75;15.98;;;-1.60;99.90;;;;;;6214303;23;20452;-89
2023/03/01 06:03:03;;;;;;;24.95;15.85;;;-1.60;99.90;;;;;;6213720;23;20096;-88
2023/03/01 06:05:29;;;;;;;22.70;14.80;;;-1.60;99.90;;;;;;6241609;23;19996;-88
2023/03/01 06:07:59;;;;;;;22.80;16.42;;;-1.60;99.90;;;;;;6208970;23;20005;-86
2023/03/01 06:10:25;;;;;;;23.27;15.13;;;-1.90;99.90;;;;;;6214355;23;20122;-85
2023/03/01 06:12:50;;;;;;;22.98;16.40;;;-1.70;99.90;;;;;;6214635;23;20417;-86
2023/03/01 06:15:16;;;;;;;22.30;16.10;;;-1.70;99.90;;;;;;6213434;23;20010;-90
2023/03/01 06:17:44;;;;;;;21.88;15.88;;;-1.70;99.90;;;;;;6240225;23;20007;-93
2023/03/01 06:20:19;;;;;;;24.38;16.60;;;-1.70;99.90;;;;;;6214084;23;20476;-92
2023/03/01 06:22:46;;;;;;;24.30;16.92;;;-1.60;99.90;;;;;;6214592;23;20517;-89
2023/03/01 06:25:15;;;;;;;23.38;16.60;;;-1.90;99.90;;;;;;6241539;23;19997;-90
2023/03/01 06:27:41;;;;;;;24.35;16.65;;;-1.70;99.90;;;;;;6241104;23;20000;-90
2023/03/01 06:30:09;;;;;;;24.40;16.55;;;-1.70;99.90;;;;;;6214972;23;20035;-91
2023/03/01 06:32:35;;;;;;;24.25;16.48;;;-2.80;99.90;;;;;;6241605;23;20004;-89
2023/03/01 06:35:01;;;;;;;25.52;17.50;;;-0.40;99.90;;;;;;6215459;23;20004;-92
2023/03/01 06:37:30;;;;;;;23.77;16.67;;;-1.50;99.90;;;;;;6242898;23;20004;-88
2023/03/01 06:39:56;;;;;;;25.25;15.70;;;-1.80;99.90;;;;;;6215712;23;20004;-87
2023/03/01 06:42:22;;;;;;;21.48;15.98;;;;;;;;;;6244030;23;20012;-91
2023/03/01 06:44:47;;;;;;;21.77;16.20;;;-1.80;99.90;;;;;;6243003;23;19996;-91
2023/03/01 06:47:13;;;;;;;21.10;15.40;;;-2.00;99.90;;;;;;6214253;23;20004;-91
2023/03/01 06:49:39;;;;;;;20.50;14.52;;;-1.80;99.90;;;;;;6214815;23;20012;-91
2023/03/01 06:52:04;;;;;;;21.63;14.85;;;-1.70;99.90;;;;;;6214773;23;20448;-91
2023/03/01 06:54:30;;;;;;;21.02;14.52;;;-1.80;99.90;;;;;;6214861;23;20024;-90
2023/03/01 06:56:55;;;;;;;21.65;15.27;;;-1.70;99.90;;;;;;6216491;23;20345;-90
2023/03/01 06:59:21;;;;;;;25.77;15.35;;;-1.80;99.90;;;;;;6215046;23;20000;-91
2023/03/01 07:01:47;;;;;;;17.98;13.88;;;-1.70;99.90;;;;;;6240880;23;20253;-91
2023/03/01 07:04:13;;;;;;;19.70;14.90;;;-1.80;99.90;;;;;;6241085;23;20057;-90
2023/03/01 07:06:39;;;;;;;21.50;14.50;;;;;;;;;;6240823;23;20000;-89
2023/03/01 07:09:05;;;;;;;23.30;14.77;;;-1.60;99.90;;;;;;6241130;23;20004;-89
2023/03/01 07:11:30;;;;;;;19.80;14.45;;;-1.40;99.90;;;;;;6240898;23;20028;-90
2023/03/01 07:13:56;;;;;;;20.58;15.18;;;-1.30;99.90;;;;;;6242264;23;20008;-89
2023/03/01 07:16:22;;;;;;;18.58;14.40;;;-1.90;99.90;;;;;;6240362;23;20003;-90
2023/03/01 07:18:47;;;;;;;19.98;14.85;;;-1.90;99.90;;;;;;6214870;23;20217;-89
2023/03/01 07:21:14;;;;;;;19.75;14.15;;;-1.70;99.90;;;;;;6213639;23;20014;-89
2023/03/01 07:23:40;;;;;;;19.27;13.15;;;-1.60;99.90;;;;;;6252479;23;20004;-90
2023/03/01 07:26:06;;;;;;;21.05;14.70;;;-1.70;99.90;;;;;;6227780;23;20026;-89
2023/03/01 07:28:35;;;;;;;18.13;14.13;;;-1.60;99.90;;;;;;6250667;23;20437;-89
2023/03/01 07:31:02;;;;;;;20.50;14.23;;;-1.50;99.90;;;;;;6214133;23;20004;-89
2023/03/01 07:33:28;;;;;;;19.67;13.48;;;-1.50;99.90;;;;;;6215268;23;20083;-89
2023/03/01 07:35:59;;;;;;;22.63;15.07;;;-1.50;99.90;;;;;;6242158;23;20026;-88
2023/03/01 07:38:26;;;;;;;19.30;13.98;;;-1.30;99.90;;;;;;6241683;23;20114;-89
2023/03/01 07:40:52;;;;;;;21.88;13.82;;;-1.30;99.90;;;;;;6213715;23;20090;-89
2023/03/01 07:43:17;;;;;;;24.13;14.00;;;-1.40;99.90;;;;;;6238764;23;20464;-89
2023/03/01 07:45:43;;;;;;;22.20;13.48;;;-0.20;99.90;;;;;;6240414;23;20027;-90
2023/03/01 07:48:09;;;;;;;19.17;13.65;;;;;;;;;;6240682;23;20000;-87
2023/03/01 07:50:35;;;;;;;19.02;13.55;;;-1.10;99.90;;;;;;6241986;23;20019;-89
2023/03/01 07:53:00;;;;;;;19.00;13.02;;;-1.30;99.90;;;;;;6242323;23;20126;-89
2023/03/01 07:55:26;;;;;;;18.83;13.77;;;0.40;99.90;;;;;;6242529;23;20001;-89
2023/03/01 07:57:52;;;;;;;18.13;13.55;;;;;;;;;;6242089;23;20087;-89
2023/03/01 08:00:18;;;;;;;19.08;12.88;;;-0.90;99.90;;;;;;6241823;23;20057;-90
2023/03/01 08:02:45;;;;;;;19.45;14.27;;;-0.80;99.90;;;;;;6241983;23;20012;-90
2023/03/01 08:05:10;;;;;;;20.83;13.40;;;-0.80;99.90;;;;;;6214608;23;20337;-92
2023/03/01 08:07:36;;;;;;;17.02;13.07;;;;;;;;;;6242019;23;20084;-90
2023/03/01 08:10:02;;;;;;;21.70;14.32;;;-0.60;99.90;;;;;;6215208;23;20027;-90
2023/03/01 08:12:28;;;;;;;17.83;13.05;;;-0.50;99.90;;;;;;6242556;23;20011;-90
2023/03/01 08:14:54;;;;;;;19.88;13.10;;;0.20;99.90;;;;;;6215150;23;20006;-90
2023/03/01 08:17:20;;;;;;;19.45;14.10;;;0.40;99.90;;;;;;6214216;23;20352;-90
2023/03/01 08:19:45;;;;;;;17.42;12.45;;;1.70;99.90;;;;;;6240975;23;20011;-88
2023/03/01 08:22:11;;;;;;;18.08;13.23;;;-0.20;99.90;;;;;;6213979;23;20340;-92
2023/03/01 08:24:37;;;;;;;20.85;13.15;;;-0.30;99.90;;;;;;6215641;23;20064;-90
2023/03/01 08:27:03;;;;;;;20.30;13.13;;;-0.10;99.90;;;;;;6242140;23;20004;-90
2023/03/01 08:29:31;;;;;;;18.63;13.15;;;1.80;99.90;;;;;;6242336;23;20081;-87
2023/03/01 08:31:57;;;;;;;16.70;12.18;;;0.10;99.90;;;;;;6215841;23;20088;-92
2023/03/01 08:34:23;;;;;;;18.58;12.98;;;;;;;;;;6241372;23;20007;-91
2023/03/01 08:36:50;;;;;;;20.13;13.20;;;0.30;99.90;;;;;;6215119;23;20498;-88
2023/03/01 08:39:18;;;;;;;17.80;12.88;;;2.20;99.90;;;;;;6241830;23;20000;-91
2023/03/01 08:41:43;;;;;;;18.02;13.27;;;0.60;99.90;;;;;;6241295;23;20376;-91
2023/03/01 08:44:11;;;;;;;17.77;13.30;;;0.70;99.90;;;;;;6241146;23;20050;-89
2023/03/01 08:46:40;;;;;;;18.63;12.90;;;0.50;99.90;;;;;;6241986;23;20027;-92
2023/03/01 08:49:16;;;;;;;17.02;13.32;;;0.80;99.90;;;;;;6242221;23;20130;-90
2023/03/01 08:51:44;;;;;;;16.83;12.68;;;0.80;99.90;;;;;;6248709;23;20030;-92
2023/03/01 08:54:12;;;;;;;17.52;12.55;;;1.10;99.90;;;;;;6249154;23;20000;-91
2023/03/01 08:56:38;;;;;;;18.02;12.80;;;0.90;99.90;;;;;;6246236;23;20023;-92
2023/03/01 08:59:04;;;;;;;16.98;12.02;;;1.00;99.90;;;;;;6241928;23;20008;-93
2023/03/01 09:01:29;;;;;;;17.98;13.02;;;1.10;99.90;;;;;;6214748;23;20087;-93
2023/03/01 09:03:55;;;;;;;22.58;12.48;;;1.20;99.90;;;;;;6240739;23;20004;-92
2023/03/01 09:06:21;;;;;;;19.92;13.82;;;2.40;99.90;;;;;;6242101;23;20042;-91
2023/03/01 09:08:49;;;;;;;23.77;13.85;;;1.80;99.90;;;;;;6215247;23;20015;-91
2023/03/01 09:11:21;;;;;;;17.65;13.35;;;1.80;99.90;;;;;;6214283;23;20016;-91
2023/03/01 09:13:47;;;;;;;16.70;10.63;;;1.50;99.90;;;;;;6214867;23;20092;-92
2023/03/01 09:16:15;;;;;;;19.92;12.30;;;2.40;99.90;;;;;;6241063;23;20429;-92
2023/03/01 09:18:40;;;;;;;18.92;13.32;;;1.50;99.90;;;;;;6240495;23;20445;-92
2023/03/01 09:21:09;;;;;;;17.67;12.77;;;1.60;99.90;;;;;;6214542;23;20054;-91
2023/03/01 09:23:40;;;;;;;16.88;12.80;;;1.70;99.90;;;;;;6214664;23;20352;-87
2023/03/01 09:26:11;;;;;;;18.23;12.75;;;1.80;99.90;;;;;;6241208;23;20071;-91
2023/03/01 09:28:37;;;;;;;16.17;12.93;;;1.90;99.90;;;;;;6241326;23;19996;-92
2023/03/01 09:31:03;;;;;;;18.65;13.07;;;2.00;99.90;;;;;;6241751;23;20011;-90
2023/03/01 09:33:30;;;;;;;16.50;12.43;;;2.10;99.90;;;;;;6240663;23;20456;-90
2023/03/01 09:36:01;;;;;;;18.42;12.95;;;2.10;99.90;;;;;;6241201;23;20007;-92
2023/03/01 09:38:27;;;;;;;17.45;12.43;;;2.10;99.90;;;;;;6240012;23;20003;-91
2023/03/01 09:40:53;;;;;;;20.25;13.43;;;2.10;99.90;;;;;;6214193;23;20004;-91
2023/03/01 09:43:19;;;;;;;17.65;13.13;;;;;;;;;;6213255;23;20411;-90
2023/03/01 09:45:47;;;;;;;16.67;11.95;;;2.30;99.90;;;;;;6213477;23;20008;-91
2023/03/01 09:48:23;;;;;;;17.75;12.50;;;2.40;99.90;;;;;;6213355;23;20058;-92
2023/03/01 09:50:49;;;;;;;19.88;13.55;;;2.30;99.90;;;;;;6240079;23;19996;-90
2023/03/01 09:53:28;;;;;;;17.65;12.90;;;4.30;99.90;;;;;;6212186;23;20015;-92
2023/03/01 09:56:14;;;;;;;24.13;12.63;;;2.40;99.90;;;;;;6212951;23;20083;-89
2023/03/01 09:58:53;;;;;;;19.08;12.70;;;2.60;99.90;;;;;;6240422;23;20463;-88
2023/03/01 10:01:38;;;;;;;17.50;13.18;;;2.70;99.90;;;;;;6212944;23;20008;-89
2023/03/01 10:04:12;;;;;;;15.77;12.35;;;2.70;99.90;;;;;;6241625;23;20012;-89
2023/03/01 10:06:43;;;;;;;18.05;13.02;;;2.70;99.90;;;;;;6240236;23;20004;-90
2023/03/01 10:09:15;;;;;;;17.88;12.57;;;2.70;99.90;;;;;;6240612;23;20039;-89
2023/03/01 10:12:04;;;;;;;18.13;13.18;;;2.80;99.90;;;;;;6213537;23;20000;-90
2023/03/01 10:14:32;;;;;;;;;;;2.90;99.90;;;;;;6240469;23;20421;-90
2023/03/01 10:17:02;;;;;;;20.35;12.98;;;3.00;99.90;;;;;;6240552;23;19904;-88
2023/03/01 10:19:33;;;;;;;19.23;13.38;;;3.10;99.90;;;;;;6240206;23;20019;-89
2023/03/01 10:22:22;;;;;;;22.02;13.55;;;3.20;99.90;;;;;;6239842;23;20019;-90
2023/03/01 10:24:49;;;;;;;22.75;13.40;;;3.30;99.90;;;;;;6213036;23;20000;-88
2023/03/01 10:27:53;;;;;;;20.63;14.23;;;3.20;99.90;;;;;;6212855;23;20008;-90
2023/03/01 10:30:39;;;;;;;20.00;13.55;;;3.20;99.90;;;;;;6088354;23;20007;-90
2023/03/01 10:33:20;;;;;;;19.17;14.52;;;3.80;99.90;;;;;;6065991;23;20115;-89
2023/03/01 10:35:47;;;;;;;20.52;14.43;;;3.50;99.90;;;;;;6169112;23;20004;-88
2023/03/01 10:38:14;;;;;;;19.98;13.38;;;3.60;99.90;;;;;;6212793;23;20008;-90
2023/03/01 10:41:05;;;;;;;19.33;13.57;;;3.90;99.90;;;;;;6213039;23;20066;-89
2023/03/01 10:43:45;;;;;;;21.48;13.48;;;4.00;99.90;;;;;;6239648;23;20349;-88
2023/03/01 10:46:36;;;;;;;18.80;13.07;;;3.80;99.90;;;;;;6213020;23;20146;-90
2023/03/01 10:49:21;;;;;;;20.63;13.27;;;3.90;99.90;;;;;;6212724;23;20011;-89
2023/03/01 10:51:49;;;;;;;20.45;14.23;;;3.90;99.90;;;;;;6240026;23;20030;-88
2023/03/01 10:54:28;;;;;;;20.60;13.20;;;4.10;99.90;;;;;;6239628;23;20005;-89
2023/03/01 10:56:56;;;;;;;18.98;14.05;;;4.20;99.90;;;;;;6213204;23;20008;-89
2023/03/01 10:59:42;;;;;;;22.65;14.98;;;4.30;99.90;;;;;;6240178;23;20027;-90
2023/03/01 11:02:29;;;;;;;19.60;14.15;;;4.40;99.90;;;;;;6213494;23;20023;-90
2023/03/01 11:05:00;;;;;;;25.38;15.02;;;4.50;99.90;;;;;;6240132;23;20341;-90
2023/03/01 11:07:26;;;;;;;21.20;14.95;;;4.30;99.90;;;;;;6239662;23;20008;-88
2023/03/01 11:09:51;;;;;;;24.42;15.02;;;4.30;99.90;;;;;;6213227;23;20087;-87
2023/03/01 11:12:17;;;;;;;20.38;14.70;;;4.50;99.90;;;;;;6213177;23;20437;-90
2023/03/01 11:14:53;;;;;;;25.67;14.13;;;4.70;99.90;;;;;;6239858;23;20000;-88
2023/03/01 11:17:29;;;;;;;21.77;15.18;;;4.50;99.90;;;;;;6212346;23;20008;-87
2023/03/01 11:20:13;;;;;;;20.15;14.35;;;4.50;99.90;;;;;;6240058;23;20011;-87
2023/03/01 11:22:52;;;;;;;20.83;14.35;;;4.50;99.90;;;;;;6214836;23;20016;-88
2023/03/01 11:25:23;;;;;;;17.75;14.18;;;4.60;99.90;;;;;;6214137;23;20408;-88
2023/03/01 11:27:49;;;;;;;21.02;13.73;;;5.50;99.90;;;;;;6242276;23;20437;-88
2023/03/01 11:30:23;;;;;;;20.65;15.43;;;4.60;99.90;;;;;;6215167;23;20000;-88
2023/03/01 11:32:55;;;;;;;21.17;14.88;;;4.70;99.90;;;;;;6241808;23;20500;-88
2023/03/01 11:35:25;;;;;;;20.48;14.05;;;4.90;99.90;;;;;;6240853;23;20050;-88
2023/03/01 11:37:59;;;;;;;18.58;14.50;;;5.00;99.90;;;;;;6214587;23;20114;-88
2023/03/01 11:40:29;;;;;;;19.23;14.40;;;5.00;99.90;;;;;;6241503;23;19996;-89
2023/03/01 11:43:24;;;;;;;18.42;13.65;;;5.20;99.90;;;;;;6241971;23;20016;-89
2023/03/01 11:45:55;;;;;;;17.67;13.18;;;5.20;99.90;;;;;;6241696;23;20006;-89
2023/03/01 11:48:48;;;;;;;22.88;14.25;;;5.10;99.90;;;;;;6214996;23;20030;-88
2023/03/01 11:51:28;;;;;;;19.85;12.98;;;4.90;99.90;;;;;;6214188;23;20071;-90
2023/03/01 11:54:03;;;;;;;18.25;13.77;;;4.90;99.90;;;;;;6242085;23;20487;-88
2023/03/01 11:56:38;;;;;;;17.38;13.10;;;4.90;99.90;;;;;;6215102;23;20406;-89
2023/03/01 11:59:31;;;;;;;17.58;13.25;;;5.10;99.90;;;;;;6242966;23;20050;-89
2023/03/01 12:01:56;;;;;;;20.17;13.27;;;5.00;99.90;;;;;;6241926;23;20482;-88
2023/03/01 12:04:37;;;;;;;18.25;13.32;;;6.20;99.90;;;;;;6214453;23;20004;-89
2023/03/01 12:07:14;;;;;;;17.13;13.68;;;5.00;99.90;;;;;;6241790;23;20065;-91
2023/03/01 12:09:55;;;;;;;19.05;13.77;;;5.10;99.90;;;;;;6242031;23;20004;-89
2023/03/01 12:12:37;;;;;;;21.15;13.50;;;5.10;99.90;;;;;;6241476;23;20004;-89
2023/03/01 12:15:06;;;;;;;19.50;12.57;;;5.00;99.90;;;;;;6241668;23;20004;-89
2023/03/01 12:17:47;;;;;;;;;;;5.20;99.90;;;;;;6241134;23;20056;-89
2023/03/01 12:20:32;;;;;;;18.75;12.65;;;5.10;99.90;;;;;;6213786;23;19904;-90
2023/03/01 12:23:03;;;;;;;16.27;12.85;;;5.10;99.90;;;;;;6241718;23;20020;-89
2023/03/01 12:25:47;;;;;;;16.63;12.18;;;5.30;99.90;;;;;;6241126;23;20392;-89
2023/03/01 12:28:31;;;;;;;16.50;12.65;;;5.20;99.90;;;;;;6241761;23;20004;-89
2023/03/01 12:30:57;;;;;;;17.17;12.32;;;5.10;99.90;;;;;;6241545;23;20417;-89
2023/03/01 12:33:27;;;;;;;16.63;12.40;;;5.50;99.90;;;;;;6241992;23;20000;-90
2023/03/01 12:36:22;;;;;;;13.52;10.50;;;5.80;99.90;;;;;;6239975;23;20004;-89
2023/03/01 12:39:19;;;;;;;16.83;11.93;;;5.30;99.90;;;;;;6241370;23;20011;-89
2023/03/01 12:42:09;;;;;;;15.35;11.30;;;5.30;99.90;;;;;;6241375;23;20433;-89
2023/03/01 12:44:47;;;;;;;14.25;10.60;;;5.40;99.90;;;;;;6172733;23;20448;-88
2023/03/01 12:47:23;;;;;;;14.93;10.82;;;5.70;99.90;;;;;;6241076;23;20035;-87
2023/03/01 12:49:59;;;;;;;13.93;10.18;;;5.70;99.90;;;;;;6240772;23;20000;-87
2023/03/01 12:52:48;;;;;;;16.75;10.32;;;5.60;99.90;;;;;;6240648;23;20046;-89